Terminal Aerodrome Forecast
Issued by NWS

Home | Current Version | Previous Version | Graphics & Text | Print | Product List | Glossary On
Versions: 1 2 3 4 5 6 7 8 9 10 11 12 13 14 15 16 17
000
FTUS43 KICT 132300
TAFRSL
TAF
KRSL 132322Z 1400/1424 16009KT P6SM SKC
      TEMPO 1400/1403 BKN050
     FM141500 17015G22KT P6SM BKN200=

USA.gov is the U.S. government's official web portal to all federal, state and local government web resources and services.